Time,TemperatureF,DewpointF,PressureIn,WindDirection,WindDirectionDegrees,WindSpeedMPH,WindSpeedGustMPH,Humidity,HourlyPrecipIn,Conditions,Clouds,dailyrainin,SoftwareType,DateUTC
2013-07-20 00:04:00,77.0,58.6,29.78,North,0,0.0,0.0,53,0.00,,,0.00,WUHU216HW,2013-07-20 07:04:00,
2013-07-20 00:09:00,76.7,58.8,29.77,North,0,0.0,0.0,54,0.00,,,0.00,WUHU216HW,2013-07-20 07:09:00,
2013-07-20 00:14:00,76.7,58.8,29.78,North,0,0.0,0.0,54,0.00,,,0.00,WUHU216HW,2013-07-20 07:14:00,
2013-07-20 00:19:00,76.5,58.6,29.78,North,0,0.0,0.0,54,0.00,,,0.00,WUHU216HW,2013-07-20 07:19:00,
2013-07-20 00:24:00,76.7,58.8,29.77,North,0,0.0,0.0,54,0.00,,,0.00,WUHU216HW,2013-07-20 07:24:00,
2013-07-20 00:29:00,76.7,58.8,29.78,North,0,0.0,0.0,54,0.00,,,0.00,WUHU216HW,2013-07-20 07:29:00,
2013-07-20 00:34:00,76.7,58.8,29.77,North,0,0.0,0.0,54,0.00,,,0.00,WUHU216HW,2013-07-20 07:34:00,
2013-07-20 00:39:00,76.3,58.0,29.77,North,0,0.0,0.0,53,0.00,,,0.00,WUHU216HW,2013-07-20 07:39:00,
2013-07-20 00:44:00,76.3,58.4,29.77,North,0,0.0,0.0,54,0.00,,,0.00,WUHU216HW,2013-07-20 07:44:00,
2013-07-20 00:49:00,76.0,57.6,29.77,North,0,0.0,0.0,53,0.00,,,0.00,WUHU216HW,2013-07-20 07:49:00,
2013-07-20 00:54:00,75.6,57.8,29.77,North,0,0.0,0.0,54,0.00,,,0.00,WUHU216HW,2013-07-20 07:54:00,
2013-07-20 00:59:00,75.6,57.2,29.77,North,0,0.0,0.0,53,0.00,,,0.00,WUHU216HW,2013-07-20 07:59:00,
2013-07-20 01:04:00,75.2,57.4,29.77,North,0,0.0,0.0,54,0.00,,,0.00,WUHU216HW,2013-07-20 08:04:00,
2013-07-20 01:09:00,75.1,57.2,29.77,North,0,0.0,0.0,54,0.00,,,0.00,WUHU216HW,2013-07-20 08:09:00,
2013-07-20 01:14:00,74.9,57.6,29.77,North,0,0.0,0.0,55,0.00,,,0.00,WUHU216HW,2013-07-20 08:14:00,
2013-07-20 01:19:00,74.5,57.8,29.77,North,0,0.0,0.0,56,0.00,,,0.00,WUHU216HW,2013-07-20 08:19:00,
2013-07-20 01:24:00,74.3,58.1,29.77,North,0,0.0,0.0,57,0.00,,,0.00,WUHU216HW,2013-07-20 08:24:00,
2013-07-20 01:29:00,74.2,57.9,29.77,North,0,0.0,0.0,57,0.00,,,0.00,WUHU216HW,2013-07-20 08:29:00,
2013-07-20 01:34:00,74.2,58.4,29.77,North,0,0.0,0.0,58,0.00,,,0.00,WUHU216HW,2013-07-20 08:34:00,
2013-07-20 01:39:00,74.2,58.4,29.77,North,0,0.0,0.0,58,0.00,,,0.00,WUHU216HW,2013-07-20 08:39:00,
2013-07-20 01:44:00,74.3,58.6,29.77,North,0,0.0,0.0,58,0.00,,,0.00,WUHU216HW,2013-07-20 08:44:00,
2013-07-20 01:49:00,74.3,58.6,29.77,North,0,0.0,0.0,58,0.00,,,0.00,WUHU216HW,2013-07-20 08:49:00,
2013-07-20 01:54:00,74.2,58.4,29.77,North,0,0.0,0.0,58,0.00,,,0.00,WUHU216HW,2013-07-20 08:54:00,
2013-07-20 01:59:00,73.6,57.9,29.77,SSE,158,0.3,0.4,58,0.00,,,0.00,WUHU216HW,2013-07-20 08:59:00,
2013-07-20 02:04:00,73.3,57.5,29.77,North,0,0.0,0.0,58,0.00,,,0.00,WUHU216HW,2013-07-20 09:04:00,
2013-07-20 02:09:00,73.1,57.9,29.77,North,0,0.0,0.0,59,0.00,,,0.00,WUHU216HW,2013-07-20 09:09:00,
2013-07-20 02:14:00,72.9,57.7,29.77,SE,135,0.5,0.7,59,0.00,,,0.00,WUHU216HW,2013-07-20 09:14:00,
2013-07-20 02:19:00,72.7,57.5,29.77,SE,135,0.4,0.4,59,0.00,,,0.00,WUHU216HW,2013-07-20 09:19:00,
2013-07-20 02:24:00,72.4,57.3,29.77,North,0,0.0,0.0,59,0.00,,,0.00,WUHU216HW,2013-07-20 09:24:00,
2013-07-20 02:29:00,72.4,57.7,29.77,North,0,0.0,0.0,60,0.00,,,0.00,WUHU216HW,2013-07-20 09:29:00,
2013-07-20 02:34:00,72.5,57.9,29.77,North,0,0.0,0.0,60,0.00,,,0.00,WUHU216HW,2013-07-20 09:34:00,
2013-07-20 02:39:00,72.4,57.7,29.76,North,0,0.0,0.0,60,0.00,,,0.00,WUHU216HW,2013-07-20 09:39:00,
2013-07-20 02:44:00,72.0,57.4,29.77,North,0,0.0,0.0,60,0.00,,,0.00,WUHU216HW,2013-07-20 09:44:00,
2013-07-20 02:49:00,71.8,57.7,29.76,North,0,0.0,0.0,61,0.00,,,0.00,WUHU216HW,2013-07-20 09:49:00,
2013-07-20 02:54:00,71.6,57.5,29.76,North,0,0.0,0.0,61,0.00,,,0.00,WUHU216HW,2013-07-20 09:54:00,
2013-07-20 02:59:00,71.6,58.0,29.77,North,0,0.0,0.0,62,0.00,,,0.00,WUHU216HW,2013-07-20 09:59:00,
2013-07-20 03:04:00,71.5,57.8,29.76,North,0,0.0,0.0,62,0.00,,,0.00,WUHU216HW,2013-07-20 10:04:00,
2013-07-20 03:09:00,71.1,57.4,29.76,North,0,0.0,0.0,62,0.00,,,0.00,WUHU216HW,2013-07-20 10:09:00,
2013-07-20 03:14:00,70.9,57.7,29.76,North,0,0.0,0.0,63,0.00,,,0.00,WUHU216HW,2013-07-20 10:14:00,
2013-07-20 03:19:00,70.9,57.7,29.76,North,0,0.0,0.0,63,0.00,,,0.00,WUHU216HW,2013-07-20 10:19:00,
2013-07-20 03:24:00,70.9,57.2,29.76,North,0,0.0,0.0,62,0.00,,,0.00,WUHU216HW,2013-07-20 10:24:00,
2013-07-20 03:29:00,70.7,57.1,29.76,North,0,0.0,0.0,62,0.00,,,0.00,WUHU216HW,2013-07-20 10:29:00,
2013-07-20 03:34:00,70.7,57.1,29.75,North,0,0.0,0.0,62,0.00,,,0.00,WUHU216HW,2013-07-20 10:34:00,
2013-07-20 03:39:00,70.7,57.1,29.76,North,0,0.0,0.0,62,0.00,,,0.00,WUHU216HW,2013-07-20 10:39:00,
2013-07-20 03:44:00,70.7,57.1,29.76,SE,124,0.3,0.4,62,0.00,,,0.00,WUHU216HW,2013-07-20 10:44:00,
2013-07-20 03:49:00,70.9,57.2,29.75,SE,135,0.3,0.4,62,0.00,,,0.00,WUHU216HW,2013-07-20 10:49:00,
2013-07-20 03:54:00,70.9,57.2,29.75,North,0,0.0,0.0,62,0.00,,,0.00,WUHU216HW,2013-07-20 10:54:00,
2013-07-20 03:59:00,70.9,57.2,29.76,North,0,0.0,0.0,62,0.00,,,0.00,WUHU216HW,2013-07-20 10:59:00,
2013-07-20 04:04:00,70.9,56.9,29.75,North,0,0.0,0.0,61,0.00,,,0.00,WUHU216HW,2013-07-20 11:04:00,
2013-07-20 04:09:00,70.9,56.4,29.75,North,0,0.0,0.0,60,0.00,,,0.00,WUHU216HW,2013-07-20 11:09:00,
2013-07-20 04:14:00,70.9,56.4,29.75,North,0,0.0,0.0,60,0.00,,,0.00,WUHU216HW,2013-07-20 11:14:00,
2013-07-20 04:19:00,70.7,56.3,29.75,North,0,0.0,0.0,60,0.00,,,0.00,WUHU216HW,2013-07-20 11:19:00,
2013-07-20 04:25:00,70.7,56.3,29.75,SE,135,0.2,0.2,60,0.00,,,0.00,WUHU216HW,2013-07-20 11:25:00,
2013-07-20 04:30:00,70.9,55.9,29.75,North,0,0.0,0.0,59,0.00,,,0.00,WUHU216HW,2013-07-20 11:30:00,
2013-07-20 04:35:00,70.7,55.7,29.75,North,0,0.0,0.0,59,0.00,,,0.00,WUHU216HW,2013-07-20 11:35:00,
2013-07-20 04:40:00,70.7,55.7,29.75,North,0,0.0,0.0,59,0.00,,,0.00,WUHU216HW,2013-07-20 11:40:00,
2013-07-20 04:45:00,70.9,55.9,29.75,North,0,0.0,0.0,59,0.00,,,0.00,WUHU216HW,2013-07-20 11:45:00,
2013-07-20 04:50:00,70.7,55.7,29.75,North,0,0.0,0.0,59,0.00,,,0.00,WUHU216HW,2013-07-20 11:50:00,
2013-07-20 04:55:00,70.9,55.9,29.75,North,0,0.0,0.0,59,0.00,,,0.00,WUHU216HW,2013-07-20 11:55:00,
2013-07-20 05:00:00,70.9,55.9,29.75,North,0,0.0,0.0,59,0.00,,,0.00,WUHU216HW,2013-07-20 12:00:00,
2013-07-20 05:05:00,70.6,56.1,29.75,North,0,0.0,0.0,60,0.00,,,0.00,WUHU216HW,2013-07-20 12:05:00,
2013-07-20 05:10:00,70.2,56.2,29.74,North,0,0.0,0.0,61,0.00,,,0.00,WUHU216HW,2013-07-20 12:10:00,
2013-07-20 05:15:00,70.2,56.2,29.74,SW,229,0.6,0.9,61,0.00,,,0.00,WUHU216HW,2013-07-20 12:15:00,
2013-07-20 05:20:00,70.2,56.2,29.75,North,0,0.0,0.0,61,0.00,,,0.00,WUHU216HW,2013-07-20 12:20:00,
2013-07-20 05:25:00,70.2,56.2,29.74,North,0,0.0,0.0,61,0.00,,,0.00,WUHU216HW,2013-07-20 12:25:00,
2013-07-20 05:30:00,69.8,55.9,29.75,North,0,0.0,0.0,61,0.00,,,0.00,WUHU216HW,2013-07-20 12:30:00,
2013-07-20 05:35:00,69.7,55.7,29.75,North,0,0.0,0.0,61,0.00,,,0.00,WUHU216HW,2013-07-20 12:35:00,
2013-07-20 05:40:00,69.5,55.5,29.75,North,0,0.0,0.0,61,0.00,,,0.00,WUHU216HW,2013-07-20 12:40:00,
2013-07-20 05:45:00,69.5,55.9,29.75,North,0,0.0,0.0,62,0.00,,,0.00,WUHU216HW,2013-07-20 12:45:00,
2013-07-20 05:50:00,69.3,55.7,29.75,North,0,0.0,0.0,62,0.00,,,0.00,WUHU216HW,2013-07-20 12:50:00,
2013-07-20 05:55:00,69.1,55.5,29.75,North,0,0.0,0.0,62,0.00,,,0.00,WUHU216HW,2013-07-20 12:55:00,
2013-07-20 06:00:00,68.9,55.8,29.75,North,0,0.0,0.0,63,0.00,,,0.00,WUHU216HW,2013-07-20 13:00:00,
2013-07-20 06:05:00,68.8,55.6,29.75,North,0,0.0,0.0,63,0.00,,,0.00,WUHU216HW,2013-07-20 13:05:00,
2013-07-20 06:10:00,68.8,55.6,29.76,North,0,0.0,0.0,63,0.00,,,0.00,WUHU216HW,2013-07-20 13:10:00,
2013-07-20 06:15:00,68.9,55.8,29.76,North,0,0.0,0.0,63,0.00,,,0.00,WUHU216HW,2013-07-20 13:15:00,
2013-07-20 06:20:00,69.1,56.0,29.76,North,0,0.0,0.0,63,0.00,,,0.00,WUHU216HW,2013-07-20 13:20:00,
2013-07-20 06:25:00,69.5,56.4,29.76,North,0,0.0,0.0,63,0.00,,,0.00,WUHU216HW,2013-07-20 13:25:00,
2013-07-20 06:30:00,69.5,56.4,29.76,North,0,0.0,0.0,63,0.00,,,0.00,WUHU216HW,2013-07-20 13:30:00,
2013-07-20 06:35:00,69.7,56.5,29.76,North,0,0.0,0.0,63,0.00,,,0.00,WUHU216HW,2013-07-20 13:35:00,
2013-07-20 06:40:00,70.0,56.9,29.76,North,0,0.0,0.0,63,0.00,,,0.00,WUHU216HW,2013-07-20 13:40:00,
2013-07-20 06:45:00,70.2,56.6,29.76,North,0,0.0,0.0,62,0.00,,,0.00,WUHU216HW,2013-07-20 13:45:00,
2013-07-20 06:50:00,70.6,57.0,29.77,North,0,0.0,0.0,62,0.00,,,0.00,WUHU216HW,2013-07-20 13:50:00,
2013-07-20 06:55:00,70.9,56.9,29.77,North,0,0.0,0.0,61,0.00,,,0.00,WUHU216HW,2013-07-20 13:55:00,
2013-07-20 07:00:00,71.1,57.4,29.77,North,0,0.0,0.0,62,0.00,,,0.00,WUHU216HW,2013-07-20 14:00:00,
2013-07-20 07:05:00,71.3,57.2,29.77,North,0,0.0,0.0,61,0.00,,,0.00,WUHU216HW,2013-07-20 14:05:00,
2013-07-20 07:10:00,71.8,58.1,29.77,North,0,0.0,0.0,62,0.00,,,0.00,WUHU216HW,2013-07-20 14:10:00,
2013-07-20 07:15:00,72.4,58.6,29.77,North,0,0.0,0.0,62,0.00,,,0.00,WUHU216HW,2013-07-20 14:15:00,
2013-07-20 07:25:00,73.3,59.4,29.77,North,0,0.0,0.0,62,0.00,,,0.00,WUHU216HW,2013-07-20 14:25:00,
2013-07-20 07:30:00,73.8,59.5,29.77,North,0,0.0,0.0,61,0.00,,,0.00,WUHU216HW,2013-07-20 14:30:00,
2013-07-20 07:35:00,74.5,59.8,29.77,North,0,0.0,0.0,60,0.00,,,0.00,WUHU216HW,2013-07-20 14:35:00,
2013-07-20 07:40:00,75.2,59.9,29.77,North,0,0.0,0.0,59,0.00,,,0.00,WUHU216HW,2013-07-20 14:40:00,
2013-07-20 07:45:00,76.1,59.8,29.77,North,0,0.0,0.0,57,0.00,,,0.00,WUHU216HW,2013-07-20 14:45:00,
2013-07-20 07:50:00,77.0,60.1,29.77,North,0,0.0,0.0,56,0.00,,,0.00,WUHU216HW,2013-07-20 14:50:00,
2013-07-20 07:55:00,77.4,59.0,29.77,SSE,168,1.6,3.4,53,0.00,,,0.00,WUHU216HW,2013-07-20 14:55:00,
2013-07-20 08:00:00,77.9,58.9,29.77,South,176,1.7,2.2,52,0.00,,,0.00,WUHU216HW,2013-07-20 15:00:00,
2013-07-20 08:05:00,78.5,58.9,29.77,South,173,1.9,2.5,51,0.00,,,0.00,WUHU216HW,2013-07-20 15:05:00,
2013-07-20 08:10:00,78.8,59.2,29.78,South,173,1.2,2.0,51,0.00,,,0.00,WUHU216HW,2013-07-20 15:10:00,
2013-07-20 08:15:00,79.2,59.5,29.78,SE,145,0.9,1.6,51,0.00,,,0.00,WUHU216HW,2013-07-20 15:15:00,
2013-07-20 08:20:00,79.6,59.9,29.78,SW,216,0.8,1.8,51,0.00,,,0.00,WUHU216HW,2013-07-20 15:20:00,
2013-07-20 08:25:00,79.6,58.7,29.78,SSW,198,0.7,1.8,49,0.00,,,0.00,WUHU216HW,2013-07-20 15:25:00,
2013-07-20 08:30:00,79.7,59.5,29.78,SSW,203,1.2,2.2,50,0.00,,,0.00,WUHU216HW,2013-07-20 15:30:00,
2013-07-20 08:35:00,80.3,59.9,29.78,SW,225,1.0,1.8,50,0.00,,,0.00,WUHU216HW,2013-07-20 15:35:00,
2013-07-20 08:40:00,80.5,59.5,29.78,SW,229,1.0,2.2,49,0.00,,,0.00,WUHU216HW,2013-07-20 15:40:00,
2013-07-20 08:45:00,80.6,59.7,29.78,SW,236,0.5,1.3,49,0.00,,,0.00,WUHU216HW,2013-07-20 15:45:00,
2013-07-20 08:50:00,80.8,58.6,29.78,WSW,241,0.9,1.3,47,0.00,,,0.00,WUHU216HW,2013-07-20 15:50:00,
2013-07-20 08:55:00,81.2,59.6,29.78,SW,217,1.1,2.5,48,0.00,,,0.00,WUHU216HW,2013-07-20 15:55:00,
2013-07-20 09:00:00,81.7,60.0,29.78,WSW,257,1.3,2.5,48,0.00,,,0.00,WUHU216HW,2013-07-20 16:00:00,
2013-07-20 09:05:00,82.1,59.8,29.77,SW,223,0.9,1.6,47,0.00,,,0.00,WUHU216HW,2013-07-20 16:05:00,
2013-07-20 09:10:00,82.6,60.3,29.77,SW,223,1.2,2.7,47,0.00,,,0.00,WUHU216HW,2013-07-20 16:10:00,
2013-07-20 09:15:00,83.2,60.1,29.77,SW,224,1.2,2.5,46,0.00,,,0.00,WUHU216HW,2013-07-20 16:15:00,
2013-07-20 09:20:00,83.5,60.5,29.77,WSW,241,1.0,2.5,46,0.00,,,0.00,WUHU216HW,2013-07-20 16:20:00,
2013-07-20 09:25:00,84.2,60.6,29.77,South,169,1.5,3.4,45,0.00,,,0.00,WUHU216HW,2013-07-20 16:25:00,
2013-07-20 09:30:00,85.0,60.6,29.77,SSE,168,1.9,3.1,44,0.00,,,0.00,WUHU216HW,2013-07-20 16:30:00,
2013-07-20 09:35:00,85.5,61.1,29.77,SSW,199,1.8,2.9,44,0.00,,,0.00,WUHU216HW,2013-07-20 16:35:00,
2013-07-20 09:40:00,86.0,61.6,29.77,SSE,160,2.3,3.4,44,0.00,,,0.00,WUHU216HW,2013-07-20 16:40:00,
2013-07-20 09:45:00,86.4,60.7,29.77,SSW,195,1.3,2.2,42,0.00,,,0.00,WUHU216HW,2013-07-20 16:45:00,
2013-07-20 09:50:00,85.9,60.1,29.77,SSW,209,2.0,3.1,42,0.00,,,0.00,WUHU216HW,2013-07-20 16:50:00,
2013-07-20 09:55:00,86.6,61.4,29.77,SSE,156,2.0,3.8,43,0.00,,,0.00,WUHU216HW,2013-07-20 16:55:00,
2013-07-20 10:00:00,87.5,61.6,29.77,South,169,2.1,3.4,42,0.00,,,0.00,WUHU216HW,2013-07-20 17:00:00,
2013-07-20 10:05:00,88.2,61.6,29.77,SSW,194,2.2,3.6,41,0.00,,,0.00,WUHU216HW,2013-07-20 17:05:00,
2013-07-20 10:10:00,88.9,61.6,29.77,SSE,156,2.8,4.0,40,0.00,,,0.00,WUHU216HW,2013-07-20 17:10:00,
2013-07-20 10:15:00,89.3,60.2,29.77,South,186,2.6,4.3,38,0.00,,,0.00,WUHU216HW,2013-07-20 17:15:00,
2013-07-20 10:20:00,89.8,61.5,29.76,SSE,165,2.8,4.5,39,0.00,,,0.00,WUHU216HW,2013-07-20 17:20:00,
2013-07-20 10:25:00,90.2,61.0,29.76,SSE,154,2.9,3.8,38,0.00,,,0.00,WUHU216HW,2013-07-20 17:25:00,
2013-07-20 10:30:00,90.4,61.2,29.77,SSE,161,2.8,4.0,38,0.00,,,0.00,WUHU216HW,2013-07-20 17:30:00,
2013-07-20 10:35:00,90.7,61.5,29.77,SSE,164,3.1,4.9,38,0.00,,,0.00,WUHU216HW,2013-07-20 17:35:00,
2013-07-20 10:40:00,91.4,61.4,29.77,South,176,2.8,4.3,37,0.00,,,0.00,WUHU216HW,2013-07-20 17:40:00,
2013-07-20 10:45:00,92.0,61.0,29.77,SSW,192,3.1,4.3,36,0.00,,,0.00,WUHU216HW,2013-07-20 17:45:00,
2013-07-20 10:50:00,92.2,61.2,29.76,SSE,166,3.1,5.6,36,0.00,,,0.00,WUHU216HW,2013-07-20 17:50:00,
2013-07-20 10:55:00,92.5,61.5,29.76,South,171,2.5,4.0,36,0.00,,,0.00,WUHU216HW,2013-07-20 17:55:00,
2013-07-20 11:00:00,93.1,60.3,29.76,South,169,2.3,4.0,34,0.00,,,0.00,WUHU216HW,2013-07-20 18:00:00,
2013-07-20 11:05:00,93.2,62.1,29.76,South,186,2.5,3.6,36,0.00,,,0.00,WUHU216HW,2013-07-20 18:05:00,
2013-07-20 11:10:00,93.6,61.7,29.76,South,187,2.4,3.6,35,0.00,,,0.00,WUHU216HW,2013-07-20 18:10:00,
2013-07-20 11:15:00,93.4,61.5,29.76,South,169,2.7,4.3,35,0.00,,,0.00,WUHU216HW,2013-07-20 18:15:00,
2013-07-20 11:20:00,93.4,58.2,29.76,SSW,201,1.3,2.9,31,0.00,,,0.00,WUHU216HW,2013-07-20 18:20:00,
2013-07-20 11:25:00,93.6,59.2,29.75,SSW,198,2.8,4.0,32,0.00,,,0.00,WUHU216HW,2013-07-20 18:25:00,
2013-07-20 11:31:00,94.3,59.1,29.75,South,185,2.2,4.0,31,0.00,,,0.00,WUHU216HW,2013-07-20 18:31:00,
2013-07-20 11:36:00,94.5,59.2,29.75,SSW,204,2.2,3.6,31,0.00,,,0.00,WUHU216HW,2013-07-20 18:36:00,
2013-07-20 11:41:00,95.0,59.7,29.75,SSW,195,2.6,3.6,31,0.00,,,0.00,WUHU216HW,2013-07-20 18:41:00,
2013-07-20 11:46:00,95.2,57.9,29.75,SSW,212,2.5,4.3,29,0.00,,,0.00,WUHU216HW,2013-07-20 18:46:00,
2013-07-20 11:51:00,95.0,58.9,29.75,West,265,2.8,4.0,30,0.00,,,0.00,WUHU216HW,2013-07-20 18:51:00,
2013-07-20 11:56:00,95.0,58.9,29.75,SW,236,3.0,4.9,30,0.00,,,0.00,WUHU216HW,2013-07-20 18:56:00,
2013-07-20 12:02:00,95.2,59.1,29.75,SW,222,1.9,4.7,30,0.00,,,0.00,WUHU216HW,2013-07-20 19:02:00,
2013-07-20 12:07:00,95.9,58.5,29.75,WSW,254,3.0,4.3,29,0.00,,,0.00,WUHU216HW,2013-07-20 19:07:00,
2013-07-20 12:12:00,96.3,58.8,29.75,SW,230,2.2,3.6,29,0.00,,,0.00,WUHU216HW,2013-07-20 19:12:00,
2013-07-20 12:17:00,97.0,59.4,29.75,South,190,3.0,6.0,29,0.00,,,0.00,WUHU216HW,2013-07-20 19:17:00,
2013-07-20 12:22:00,96.7,59.0,29.75,West,269,2.7,5.1,29,0.00,,,0.00,WUHU216HW,2013-07-20 19:22:00,
2013-07-20 12:27:00,96.5,59.0,29.75,WNW,283,2.1,4.7,29,0.00,,,0.00,WUHU216HW,2013-07-20 19:27:00,
2013-07-20 12:33:00,96.7,59.0,29.75,West,265,2.1,3.8,29,0.00,,,0.00,WUHU216HW,2013-07-20 19:33:00,
2013-07-20 12:38:00,97.0,59.4,29.74,WNW,283,2.2,4.0,29,0.00,,,0.00,WUHU216HW,2013-07-20 19:38:00,
2013-07-20 12:43:00,97.6,59.9,29.74,WSW,237,1.6,3.8,29,0.00,,,0.00,WUHU216HW,2013-07-20 19:43:00,
2013-07-20 12:48:00,98.1,58.2,29.74,SW,226,2.6,4.3,27,0.00,,,0.00,WUHU216HW,2013-07-20 19:48:00,
2013-07-20 12:53:00,98.1,58.2,29.74,SW,214,1.8,3.4,27,0.00,,,0.00,WUHU216HW,2013-07-20 19:53:00,
2013-07-20 12:58:00,98.1,57.0,29.74,WSW,243,2.1,4.3,26,0.00,,,0.00,WUHU216HW,2013-07-20 19:58:00,
2013-07-20 13:03:00,99.0,57.8,29.74,SW,231,1.9,3.6,26,0.00,,,0.00,WUHU216HW,2013-07-20 20:03:00,
2013-07-20 13:08:00,99.2,58.0,29.74,WNW,285,3.0,4.7,26,0.00,,,0.00,WUHU216HW,2013-07-20 20:08:00,
2013-07-20 13:13:00,99.5,59.3,29.73,SW,235,2.1,3.4,27,0.00,,,0.00,WUHU216HW,2013-07-20 20:13:00,
2013-07-20 13:18:00,99.7,58.4,29.73,SSW,198,2.4,4.7,26,0.00,,,0.00,WUHU216HW,2013-07-20 20:18:00,
2013-07-20 13:23:00,99.4,57.0,29.73,WSW,237,2.1,3.4,25,0.00,,,0.00,WUHU216HW,2013-07-20 20:23:00,
2013-07-20 13:28:00,99.7,56.2,29.73,WNW,282,3.1,4.9,24,0.00,,,0.00,WUHU216HW,2013-07-20 20:28:00,
2013-07-20 13:33:00,100.1,55.3,29.72,West,274,2.7,5.1,23,0.00,,,0.00,WUHU216HW,2013-07-20 20:33:00,
2013-07-20 13:38:00,100.1,56.4,29.73,SW,218,2.8,4.3,24,0.00,,,0.00,WUHU216HW,2013-07-20 20:38:00,
2013-07-20 13:43:00,100.3,55.4,29.72,West,279,2.4,3.8,23,0.00,,,0.00,WUHU216HW,2013-07-20 20:43:00,
2013-07-20 13:48:00,100.6,54.6,29.72,SSW,201,2.3,3.6,22,0.00,,,0.00,WUHU216HW,2013-07-20 20:48:00,
2013-07-20 13:53:00,101.0,50.9,29.72,WSW,254,1.3,3.4,19,0.00,,,0.00,WUHU216HW,2013-07-20 20:53:00,
2013-07-20 13:58:00,101.7,51.4,29.72,South,183,1.7,3.1,19,0.00,,,0.00,WUHU216HW,2013-07-20 20:58:00,
2013-07-20 14:03:00,102.2,50.1,29.71,WSW,239,1.3,3.4,18,0.00,,,0.00,WUHU216HW,2013-07-20 21:03:00,
2013-07-20 14:08:00,102.4,53.8,29.72,SSW,206,1.7,2.5,20,0.00,,,0.00,WUHU216HW,2013-07-20 21:08:00,
2013-07-20 14:13:00,102.2,55.9,29.71,SW,231,1.8,4.3,22,0.00,,,0.00,WUHU216HW,2013-07-20 21:13:00,
2013-07-20 14:18:00,102.2,55.9,29.71,WSW,255,1.7,3.6,22,0.00,,,0.00,WUHU216HW,2013-07-20 21:18:00,
2013-07-20 14:23:00,102.4,56.1,29.71,WNW,292,3.0,4.7,22,0.00,,,0.00,WUHU216HW,2013-07-20 21:23:00,
2013-07-20 14:28:00,102.8,54.1,29.71,WNW,298,2.3,4.7,20,0.00,,,0.00,WUHU216HW,2013-07-20 21:28:00,
2013-07-20 14:33:00,102.8,54.1,29.71,WSW,245,1.8,3.6,20,0.00,,,0.00,WUHU216HW,2013-07-20 21:33:00,
2013-07-20 14:38:00,103.1,54.4,29.71,SW,218,2.7,4.7,20,0.00,,,0.00,WUHU216HW,2013-07-20 21:38:00,
2013-07-20 14:43:00,103.0,56.5,29.70,WNW,301,1.8,4.9,22,0.00,,,0.00,WUHU216HW,2013-07-20 21:43:00,
2013-07-20 14:49:00,103.5,54.6,29.70,South,179,2.7,4.3,20,0.00,,,0.00,WUHU216HW,2013-07-20 21:49:00,
2013-07-20 14:54:00,104.0,57.4,29.70,WSW,238,1.9,3.8,22,0.00,,,0.00,WUHU216HW,2013-07-20 21:54:00,
2013-07-20 14:59:00,103.7,54.8,29.70,West,275,2.7,4.0,20,0.00,,,0.00,WUHU216HW,2013-07-20 21:59:00,
2013-07-20 15:04:00,103.5,52.8,29.70,West,277,2.9,4.7,19,0.00,,,0.00,WUHU216HW,2013-07-20 22:04:00,
2013-07-20 15:09:00,103.3,52.7,29.70,West,267,1.9,4.9,19,0.00,,,0.00,WUHU216HW,2013-07-20 22:09:00,
2013-07-20 15:14:00,103.7,53.0,29.69,WSW,254,2.5,4.5,19,0.00,,,0.00,WUHU216HW,2013-07-20 22:14:00,
2013-07-20 15:19:00,104.0,53.3,29.69,WSW,255,2.1,5.6,19,0.00,,,0.00,WUHU216HW,2013-07-20 22:19:00,
2013-07-20 15:24:00,104.4,53.6,29.69,NW,307,1.2,2.5,19,0.00,,,0.00,WUHU216HW,2013-07-20 22:24:00,
2013-07-20 15:30:00,104.8,52.0,29.69,West,274,2.4,4.7,18,0.00,,,0.00,WUHU216HW,2013-07-20 22:30:00,
2013-07-20 15:35:00,104.9,52.1,29.69,WSW,248,1.9,3.8,18,0.00,,,0.00,WUHU216HW,2013-07-20 22:35:00,
2013-07-20 15:40:00,104.8,52.0,29.68,West,276,2.8,6.3,18,0.00,,,0.00,WUHU216HW,2013-07-20 22:40:00,
2013-07-20 15:45:00,104.4,53.6,29.68,WSW,246,2.0,4.9,19,0.00,,,0.00,WUHU216HW,2013-07-20 22:45:00,
2013-07-20 15:50:00,104.4,53.6,29.68,WSW,245,2.0,4.3,19,0.00,,,0.00,WUHU216HW,2013-07-20 22:50:00,
2013-07-20 15:55:00,104.4,53.6,29.67,WNW,291,2.2,5.4,19,0.00,,,0.00,WUHU216HW,2013-07-20 22:55:00,
2013-07-20 16:00:00,104.6,53.7,29.67,SW,229,1.8,4.3,19,0.00,,,0.00,WUHU216HW,2013-07-20 23:00:00,
2013-07-20 16:05:00,104.6,53.7,29.67,West,262,2.1,5.1,19,0.00,,,0.00,WUHU216HW,2013-07-20 23:05:00,
2013-07-20 16:10:00,104.4,53.6,29.67,West,269,2.5,4.9,19,0.00,,,0.00,WUHU216HW,2013-07-20 23:10:00,
2013-07-20 16:15:00,104.4,53.6,29.67,WSW,247,1.9,3.8,19,0.00,,,0.00,WUHU216HW,2013-07-20 23:15:00,
2013-07-20 16:20:00,104.6,55.5,29.67,WNW,294,3.0,5.1,20,0.00,,,0.00,WUHU216HW,2013-07-20 23:20:00,
2013-07-20 16:25:00,104.4,55.4,29.66,NW,315,2.9,4.7,20,0.00,,,0.00,WUHU216HW,2013-07-20 23:25:00,
2013-07-20 16:30:00,104.2,55.3,29.67,WNW,299,3.3,5.4,20,0.00,,,0.00,WUHU216HW,2013-07-20 23:30:00,
2013-07-20 16:35:00,104.4,55.4,29.66,West,268,2.3,4.5,20,0.00,,,0.00,WUHU216HW,2013-07-20 23:35:00,
2013-07-20 16:40:00,104.2,55.3,29.66,WNW,283,4.1,6.0,20,0.00,,,0.00,WUHU216HW,2013-07-20 23:40:00,
2013-07-20 16:45:00,103.9,54.9,29.66,NW,309,4.1,6.0,20,0.00,,,0.00,WUHU216HW,2013-07-20 23:45:00,
2013-07-20 16:50:00,103.7,54.8,29.66,NW,312,3.6,6.3,20,0.00,,,0.00,WUHU216HW,2013-07-20 23:50:00,
2013-07-20 16:55:00,103.5,54.6,29.66,NW,317,3.5,5.4,20,0.00,,,0.00,WUHU216HW,2013-07-20 23:55:00,
2013-07-20 17:01:00,103.3,55.6,29.66,NW,315,2.9,5.1,21,0.00,,,0.00,WUHU216HW,2013-07-21 00:01:00,
2013-07-20 17:06:00,103.3,54.6,29.66,West,281,2.0,3.6,20,0.00,,,0.00,WUHU216HW,2013-07-21 00:06:00,
2013-07-20 17:11:00,102.8,54.1,29.66,NNW,327,1.9,3.6,20,0.00,,,0.00,WUHU216HW,2013-07-21 00:11:00,
2013-07-20 17:16:00,102.8,56.3,29.66,NNW,327,1.5,3.4,22,0.00,,,0.00,WUHU216HW,2013-07-21 00:16:00,
2013-07-20 17:21:00,102.8,56.3,29.66,NW,319,2.1,4.7,22,0.00,,,0.00,WUHU216HW,2013-07-21 00:21:00,
2013-07-20 17:26:00,102.2,55.9,29.66,NNW,336,1.5,2.5,22,0.00,,,0.00,WUHU216HW,2013-07-21 00:26:00,
2013-07-20 17:31:00,101.7,55.4,29.66,NNW,331,1.5,2.9,22,0.00,,,0.00,WUHU216HW,2013-07-21 00:31:00,
2013-07-20 17:36:00,101.5,55.4,29.65,NW,326,1.3,2.7,22,0.00,,,0.00,WUHU216HW,2013-07-21 00:36:00,
2013-07-20 17:41:00,101.5,55.4,29.65,NNW,337,1.2,2.7,22,0.00,,,0.00,WUHU216HW,2013-07-21 00:41:00,
2013-07-20 17:47:00,101.2,52.7,29.65,NNW,339,1.1,2.7,20,0.00,,,0.00,WUHU216HW,2013-07-21 00:47:00,
2013-07-20 17:52:00,100.8,52.5,29.65,NNW,339,1.1,2.2,20,0.00,,,0.00,WUHU216HW,2013-07-21 00:52:00,
2013-07-20 17:57:00,100.8,52.5,29.65,NNW,329,0.8,2.0,20,0.00,,,0.00,WUHU216HW,2013-07-21 00:57:00,
2013-07-20 18:02:00,100.6,52.4,29.65,NNW,336,0.9,2.7,20,0.00,,,0.00,WUHU216HW,2013-07-21 01:02:00,
2013-07-20 18:07:00,100.4,53.4,29.65,NNW,336,0.8,1.1,21,0.00,,,0.00,WUHU216HW,2013-07-21 01:07:00,
2013-07-20 18:12:00,100.1,54.2,29.65,NW,326,0.7,1.1,22,0.00,,,0.00,WUHU216HW,2013-07-21 01:12:00,
2013-07-20 18:17:00,99.5,53.7,29.65,NNW,343,0.3,1.1,22,0.00,,,0.00,WUHU216HW,2013-07-21 01:17:00,
2013-07-20 18:22:00,99.4,54.7,29.65,North,6,1.0,2.0,23,0.00,,,0.00,WUHU216HW,2013-07-21 01:22:00,
2013-07-20 18:27:00,99.0,54.5,29.65,North,356,0.9,2.2,23,0.00,,,0.00,WUHU216HW,2013-07-21 01:27:00,
2013-07-20 18:32:00,98.6,54.1,29.65,North,357,1.0,2.5,23,0.00,,,0.00,WUHU216HW,2013-07-21 01:32:00,
2013-07-20 18:37:00,98.3,53.8,29.66,NNW,345,0.4,0.9,23,0.00,,,0.00,WUHU216HW,2013-07-21 01:37:00,
2013-07-20 18:42:00,98.3,54.9,29.66,NW,320,0.7,1.8,24,0.00,,,0.00,WUHU216HW,2013-07-21 01:42:00,
2013-07-20 18:47:00,98.3,54.9,29.66,NW,315,1.4,2.2,24,0.00,,,0.00,WUHU216HW,2013-07-21 01:47:00,
2013-07-20 18:52:00,98.5,55.1,29.66,NW,316,1.2,2.2,24,0.00,,,0.00,WUHU216HW,2013-07-21 01:52:00,
2013-07-20 18:57:00,98.3,54.9,29.66,NNW,333,0.4,0.9,24,0.00,,,0.00,WUHU216HW,2013-07-21 01:57:00,
2013-07-20 19:02:00,98.1,54.8,29.66,NW,324,0.5,1.6,24,0.00,,,0.00,WUHU216HW,2013-07-21 02:02:00,
2013-07-20 19:07:00,98.3,54.9,29.65,NNW,332,0.4,0.9,24,0.00,,,0.00,WUHU216HW,2013-07-21 02:07:00,
2013-07-20 19:12:00,98.3,56.1,29.66,NNW,334,0.4,0.9,25,0.00,,,0.00,WUHU216HW,2013-07-21 02:12:00,
2013-07-20 19:17:00,97.9,56.9,29.66,NNW,342,0.4,0.7,26,0.00,,,0.00,WUHU216HW,2013-07-21 02:17:00,
2013-07-20 19:22:00,97.6,56.5,29.66,NNW,338,0.2,0.4,26,0.00,,,0.00,WUHU216HW,2013-07-21 02:22:00,
2013-07-20 19:27:00,97.6,57.6,29.66,WNW,293,0.3,0.4,27,0.00,,,0.00,WUHU216HW,2013-07-21 02:27:00,
2013-07-20 19:32:00,97.4,57.5,29.66,North,0,0.0,0.0,27,0.00,,,0.00,WUHU216HW,2013-07-21 02:32:00,
2013-07-20 19:37:00,97.2,58.4,29.66,North,0,0.0,0.0,28,0.00,,,0.00,WUHU216HW,2013-07-21 02:37:00,
2013-07-20 19:42:00,96.8,59.2,29.66,North,0,0.0,0.0,29,0.00,,,0.00,WUHU216HW,2013-07-21 02:42:00,
2013-07-20 19:47:00,96.5,59.0,29.66,North,0,0.0,0.0,29,0.00,,,0.00,WUHU216HW,2013-07-21 02:47:00,
2013-07-20 19:52:00,96.1,59.8,29.66,North,0,0.0,0.0,30,0.00,,,0.00,WUHU216HW,2013-07-21 02:52:00,
2013-07-20 19:57:00,95.6,60.1,29.66,North,0,0.0,0.0,31,0.00,,,0.00,WUHU216HW,2013-07-21 02:57:00,
2013-07-20 20:02:00,95.0,60.5,29.67,North,0,0.0,0.0,32,0.00,,,0.00,WUHU216HW,2013-07-21 03:02:00,
2013-07-20 20:07:00,94.5,60.9,29.67,North,0,0.0,0.0,33,0.00,,,0.00,WUHU216HW,2013-07-21 03:07:00,
2013-07-20 20:12:00,94.0,60.3,29.67,North,0,0.0,0.0,33,0.00,,,0.00,WUHU216HW,2013-07-21 03:12:00,
2013-07-20 20:17:00,93.2,60.5,29.67,North,0,0.0,0.0,34,0.00,,,0.00,WUHU216HW,2013-07-21 03:17:00,
2013-07-20 20:22:00,92.3,61.3,29.67,North,0,0.0,0.0,36,0.00,,,0.00,WUHU216HW,2013-07-21 03:22:00,
2013-07-20 20:27:00,91.3,60.4,29.67,North,0,0.0,0.0,36,0.00,,,0.00,WUHU216HW,2013-07-21 03:27:00,
2013-07-20 20:32:00,90.5,61.3,29.67,North,0,0.0,0.0,38,0.00,,,0.00,WUHU216HW,2013-07-21 03:32:00,
2013-07-20 20:37:00,90.2,61.0,29.67,North,0,0.0,0.0,38,0.00,,,0.00,WUHU216HW,2013-07-21 03:37:00,
2013-07-20 20:42:00,89.8,61.5,29.68,North,0,0.0,0.0,39,0.00,,,0.00,WUHU216HW,2013-07-21 03:42:00,
2013-07-20 20:47:00,89.6,61.3,29.68,North,0,0.0,0.0,39,0.00,,,0.00,WUHU216HW,2013-07-21 03:47:00,
2013-07-20 20:52:00,89.3,61.8,29.68,North,1,0.6,1.3,40,0.00,,,0.00,WUHU216HW,2013-07-21 03:52:00,
2013-07-20 20:57:00,88.9,62.8,29.68,North,352,0.3,0.7,42,0.00,,,0.00,WUHU216HW,2013-07-21 03:57:00,
2013-07-20 21:02:00,88.4,61.8,29.68,West,274,0.7,1.3,41,0.00,,,0.00,WUHU216HW,2013-07-21 04:02:00,
2013-07-20 21:07:00,88.2,62.2,29.68,North,0,0.0,0.0,42,0.00,,,0.00,WUHU216HW,2013-07-21 04:07:00,
2013-07-20 21:12:00,87.5,62.2,29.68,North,0,0.0,0.0,43,0.00,,,0.00,WUHU216HW,2013-07-21 04:12:00,
2013-07-20 21:17:00,86.9,62.4,29.68,North,0,0.0,0.0,44,0.00,,,0.00,WUHU216HW,2013-07-21 04:17:00,
2013-07-20 21:22:00,86.8,62.8,29.67,South,172,0.6,0.7,45,0.00,,,0.00,WUHU216HW,2013-07-21 04:22:00,
2013-07-20 21:27:00,86.8,62.2,29.67,SSE,158,0.2,0.2,44,0.00,,,0.00,WUHU216HW,2013-07-21 04:27:00,
2013-07-20 21:32:00,86.4,61.9,29.68,SE,135,0.4,0.4,44,0.00,,,0.00,WUHU216HW,2013-07-21 04:32:00,
2013-07-20 21:37:00,86.0,62.2,29.68,North,0,0.0,0.0,45,0.00,,,0.00,WUHU216HW,2013-07-21 04:37:00,
2013-07-20 21:42:00,85.9,62.0,29.69,North,0,0.0,0.0,45,0.00,,,0.00,WUHU216HW,2013-07-21 04:42:00,
2013-07-20 21:47:00,85.5,61.8,29.69,North,0,0.0,0.0,45,0.00,,,0.00,WUHU216HW,2013-07-21 04:47:00,
2013-07-20 21:52:00,85.3,62.2,29.69,North,0,0.0,0.0,46,0.00,,,0.00,WUHU216HW,2013-07-21 04:52:00,
2013-07-20 21:57:00,85.1,62.0,29.69,North,0,0.0,0.0,46,0.00,,,0.00,WUHU216HW,2013-07-21 04:57:00,
2013-07-20 22:02:00,84.8,61.7,29.69,North,0,0.4,0.7,46,0.00,,,0.00,WUHU216HW,2013-07-21 05:02:00,
2013-07-20 22:07:00,84.2,60.6,29.69,North,0,0.2,0.2,45,0.00,,,0.00,WUHU216HW,2013-07-21 05:07:00,
2013-07-20 22:12:00,84.1,61.0,29.69,North,0,0.0,0.0,46,0.00,,,0.00,WUHU216HW,2013-07-21 05:12:00,
2013-07-20 22:17:00,84.1,61.0,29.69,North,0,0.0,0.0,46,0.00,,,0.00,WUHU216HW,2013-07-21 05:17:00,